createdAt,value
2023-02-25T00:04:29.974Z,63.41
2023-02-25T00:09:32.741Z,63.45
2023-02-25T00:14:35.428Z,63.76
2023-02-25T00:19:38.167Z,64.08
2023-02-25T00:24:40.811Z,63.57
2023-02-25T00:29:43.685Z,63.82
2023-02-25T00:34:46.921Z,63.83
2023-02-25T00:39:49.651Z,63.72
2023-02-25T00:44:52.344Z,63.67
2023-02-25T00:49:54.984Z,63.93
2023-02-25T00:54:57.678Z,63.68
2023-02-25T01:00:00.505Z,64.23
2023-02-25T01:05:03.854Z,65.19
2023-02-25T01:10:08.864Z,65.00
2023-02-25T01:15:12.316Z,64.97
2023-02-25T01:20:20.168Z,64.06
2023-02-25T01:25:23.063Z,64.70
2023-02-25T01:30:25.854Z,64.78
2023-02-25T01:35:28.518Z,64.69
2023-02-25T01:40:31.307Z,65.29
2023-02-25T01:45:44.358Z,66.03
2023-02-25T01:50:52.908Z,66.11
2023-02-25T01:55:56.863Z,65.93
2023-02-25T02:00:59.692Z,66.59
2023-02-25T02:06:39.078Z,66.76
2023-02-25T02:11:43.289Z,66.33
2023-02-25T02:16:59.623Z,66.55
2023-02-25T02:22:35.711Z,66.01
2023-02-25T02:27:53.348Z,64.95
2023-02-25T02:33:10.513Z,64.77
2023-02-25T02:38:27.996Z,63.56
2023-02-25T02:43:41.802Z,62.67
2023-02-25T02:48:56.627Z,62.52
2023-02-25T02:54:07.486Z,62.19
2023-02-25T02:59:26.148Z,61.95
2023-02-25T03:04:31.794Z,61.75
2023-02-25T03:09:50.069Z,60.60
2023-02-25T03:14:53.068Z,60.18
2023-02-25T03:20:18.451Z,59.95
2023-02-25T03:25:29.781Z,59.60
2023-02-25T03:30:49.567Z,59.90
2023-02-25T03:35:55.481Z,60.80
2023-02-25T03:41:08.551Z,60.67
2023-02-25T03:46:16.046Z,60.96
2023-02-25T03:51:22.444Z,61.21
2023-02-25T03:56:26.020Z,61.11
2023-02-25T04:01:30.960Z,60.59
2023-02-25T04:06:33.828Z,60.83
2023-02-25T04:11:37.198Z,60.49
2023-02-25T04:16:40.112Z,59.81
2023-02-25T04:21:47.337Z,60.10
2023-02-25T04:26:50.048Z,60.09
2023-02-25T04:31:53.145Z,60.07
2023-02-25T04:36:56.042Z,58.80
2023-02-25T04:41:59.071Z,58.76
2023-02-25T04:47:01.837Z,57.72
2023-02-25T04:52:04.645Z,57.91
2023-02-25T04:57:08.292Z,57.09
2023-02-25T05:02:11.399Z,56.45
2023-02-25T05:07:14.073Z,56.08
2023-02-25T05:12:16.747Z,56.21
2023-02-25T05:17:19.567Z,55.92
2023-02-25T05:22:23.252Z,56.44
2023-02-25T05:27:26.106Z,55.54
2023-02-25T05:32:31.698Z,55.44
2023-02-25T05:37:34.811Z,55.28
2023-02-25T05:42:38.295Z,55.47
2023-02-25T05:47:41.003Z,54.77
2023-02-25T05:52:43.922Z,55.61
2023-02-25T05:57:46.591Z,55.04
2023-02-25T06:02:49.412Z,55.43
2023-02-25T06:07:52.204Z,55.04
2023-02-25T06:12:54.892Z,55.31
2023-02-25T06:17:57.686Z,54.99
2023-02-25T06:23:00.356Z,54.10
2023-02-25T06:28:04.022Z,53.78
2023-02-25T06:33:06.708Z,54.87
2023-02-25T06:38:09.701Z,54.12
2023-02-25T06:43:12.481Z,54.81
2023-02-25T06:48:15.383Z,54.50
2023-02-25T06:53:18.103Z,54.66
2023-02-25T06:58:20.852Z,55.31
2023-02-25T07:03:23.628Z,55.33
2023-02-25T07:08:26.369Z,55.95
2023-02-25T07:13:29.079Z,55.04
2023-02-25T07:18:31.655Z,54.61
2023-02-25T07:23:36.753Z,55.17
2023-02-25T07:28:40.175Z,55.35
2023-02-25T07:33:43.080Z,55.91
2023-02-25T07:38:47.187Z,56.00
2023-02-25T07:43:49.960Z,55.87
2023-02-25T07:48:54.971Z,55.65
2023-02-25T07:54:03.817Z,56.50
2023-02-25T07:59:06.548Z,55.77
2023-02-25T08:04:10.718Z,56.12
2023-02-25T08:09:14.231Z,56.60
2023-02-25T08:14:16.950Z,56.79
2023-02-25T08:19:19.659Z,57.33
2023-02-25T08:24:23.020Z,57.17
2023-02-25T08:29:26.196Z,57.15
2023-02-25T08:34:28.932Z,57.03
2023-02-25T08:39:31.784Z,57.09
2023-02-25T08:44:34.439Z,56.18
2023-02-25T08:49:39.350Z,55.74
2023-02-25T08:54:42.084Z,55.79
2023-02-25T08:59:44.710Z,55.45
2023-02-25T09:04:47.462Z,54.95
2023-02-25T09:09:50.181Z,55.50
2023-02-25T09:14:52.906Z,55.39
2023-02-25T09:19:55.816Z,54.87
2023-02-25T09:24:58.523Z,55.15
2023-02-25T09:30:01.437Z,55.36
2023-02-25T09:35:07.919Z,55.66
2023-02-25T09:40:11.874Z,55.59
2023-02-25T09:45:18.273Z,56.25
2023-02-25T09:50:27.707Z,56.49
2023-02-25T09:55:39.692Z,56.34
2023-02-25T10:01:06.458Z,55.98
2023-02-25T10:06:21.655Z,56.40
2023-02-25T10:11:36.480Z,56.87
2023-02-25T10:16:51.109Z,57.48
2023-02-25T10:22:02.855Z,57.15
2023-02-25T10:27:24.846Z,57.04
2023-02-25T10:32:31.493Z,57.26
2023-02-25T10:37:39.802Z,57.47
2023-02-25T10:42:47.628Z,57.31
2023-02-25T10:48:04.565Z,56.92
2023-02-25T10:53:18.026Z,57.60
2023-02-25T10:58:44.829Z,57.84
2023-02-25T11:03:47.662Z,58.91
2023-02-25T11:08:51.455Z,58.92
2023-02-25T11:14:03.133Z,59.00
2023-02-25T11:19:23.364Z,59.22
2023-02-25T11:24:35.522Z,59.83
2023-02-25T11:29:41.198Z,59.89
2023-02-25T11:34:50.533Z,60.18
2023-02-25T11:39:55.438Z,60.67
2023-02-25T11:45:03.599Z,61.11
2023-02-25T11:50:18.645Z,60.92
2023-02-25T11:55:42.781Z,62.11
2023-02-25T12:00:55.509Z,61.91
2023-02-25T12:06:13.523Z,61.88
2023-02-25T12:11:24.354Z,62.22
2023-02-25T12:16:46.719Z,62.12
2023-02-25T12:22:15.121Z,62.53
2023-02-25T12:27:34.428Z,62.33
2023-02-25T12:33:08.324Z,62.35
2023-02-25T12:38:52.244Z,62.46
2023-02-25T12:44:22.312Z,62.81
2023-02-25T12:49:43.043Z,63.09
2023-02-25T12:54:51.620Z,63.32
2023-02-25T13:00:10.693Z,63.63
2023-02-25T13:05:42.379Z,63.51
2023-02-25T13:11:08.340Z,63.72
2023-02-25T13:16:28.675Z,63.61
2023-02-25T13:21:43.745Z,64.22
2023-02-25T13:27:22.553Z,64.07
2023-02-25T13:32:26.957Z,64.05
2023-02-25T13:37:44.533Z,64.63
2023-02-25T13:43:12.163Z,65.06
2023-02-25T13:48:18.330Z,65.06
2023-02-25T13:53:36.174Z,64.89
2023-02-25T13:59:00.345Z,65.16
2023-02-25T14:04:05.872Z,65.68
2023-02-25T14:09:46.596Z,65.77
2023-02-25T14:15:20.473Z,66.45
2023-02-25T14:20:29.428Z,66.87
2023-02-25T14:25:56.469Z,67.35
2023-02-25T14:31:11.525Z,67.45
2023-02-25T14:36:37.458Z,67.50
2023-02-25T14:42:03.673Z,68.11
2023-02-25T14:47:19.732Z,67.68
2023-02-25T14:52:41.155Z,68.56
2023-02-25T14:58:09.014Z,68.87
2023-02-25T15:03:17.403Z,68.75
2023-02-25T15:08:51.431Z,68.90
2023-02-25T15:14:19.270Z,68.88
2023-02-25T15:20:00.369Z,69.26
2023-02-25T15:25:21.916Z,69.61
2023-02-25T15:30:27.335Z,69.91
2023-02-25T15:35:35.944Z,70.12
2023-02-25T15:40:45.409Z,70.27
2023-02-25T15:45:55.902Z,69.82
2023-02-25T15:51:00.899Z,70.25
2023-02-25T15:56:06.951Z,70.13
2023-02-25T16:01:39.859Z,70.00
2023-02-25T16:06:42.854Z,69.65
2023-02-25T16:11:56.379Z,69.20
2023-02-25T16:17:24.170Z,69.63
2023-02-25T16:22:28.807Z,69.37
2023-02-25T16:27:43.662Z,69.30
2023-02-25T16:33:04.561Z,69.01
2023-02-25T16:38:16.033Z,69.29
2023-02-25T16:43:31.074Z,69.19
2023-02-25T16:49:11.749Z,68.88
2023-02-25T16:54:18.106Z,68.77
2023-02-25T16:59:22.722Z,68.62
2023-02-25T17:04:30.172Z,68.76
2023-02-25T17:09:32.990Z,68.60
2023-02-25T17:14:36.069Z,68.48
2023-02-25T17:19:38.902Z,68.71
2023-02-25T17:24:41.818Z,69.06
2023-02-25T17:29:46.142Z,69.34
2023-02-25T17:34:49.899Z,69.81
2023-02-25T17:39:52.757Z,69.90
2023-02-25T17:44:55.526Z,70.05
2023-02-25T17:50:00.533Z,70.70
2023-02-25T17:55:06.545Z,70.52
2023-02-25T18:00:36.244Z,71.04
2023-02-25T18:05:51.610Z,70.65
2023-02-25T18:11:16.301Z,70.93
2023-02-25T18:16:30.897Z,71.06
2023-02-25T18:21:40.308Z,71.36
2023-02-25T18:27:19.899Z,71.77
2023-02-25T18:32:25.118Z,71.38
2023-02-25T18:37:29.083Z,71.81
2023-02-25T18:42:31.622Z,71.95
2023-02-25T18:47:34.302Z,71.87
2023-02-25T18:52:37.984Z,72.00
2023-02-25T18:57:40.754Z,72.39
2023-02-25T19:02:52.241Z,72.82
2023-02-25T19:07:55.401Z,72.73
2023-02-25T19:13:08.892Z,72.67
2023-02-25T19:18:15.958Z,72.62
2023-02-25T19:23:19.877Z,72.92
2023-02-25T19:28:22.533Z,73.49
2023-02-25T19:33:25.243Z,73.32
2023-02-25T19:38:28.047Z,73.58
2023-02-25T19:43:31.893Z,73.74
2023-02-25T19:48:34.736Z,74.22
2023-02-25T19:53:37.831Z,74.33
2023-02-25T19:58:40.584Z,74.16
2023-02-25T20:03:43.593Z,74.33
2023-02-25T20:08:52.711Z,74.60
2023-02-25T20:13:55.477Z,74.93
2023-02-25T20:18:58.362Z,74.91
2023-02-25T20:24:01.567Z,74.92
2023-02-25T20:29:04.973Z,75.24
2023-02-25T20:34:07.796Z,75.03
2023-02-25T20:39:25.858Z,75.32
2023-02-25T20:44:28.787Z,75.30
2023-02-25T20:49:31.763Z,75.61
2023-02-25T20:54:34.512Z,75.64
2023-02-25T20:59:37.239Z,75.68
2023-02-25T21:04:39.939Z,75.54
2023-02-25T21:09:42.705Z,75.64
2023-02-25T21:14:45.501Z,75.71
2023-02-25T21:19:48.147Z,75.67
2023-02-25T21:24:50.866Z,75.58
2023-02-25T21:29:53.626Z,75.58
2023-02-25T21:34:56.421Z,75.61
2023-02-25T21:39:59.127Z,75.84
2023-02-25T21:45:02.173Z,75.67
2023-02-25T21:50:06.906Z,75.31
2023-02-25T21:55:10.229Z,75.95
2023-02-25T22:00:14.663Z,75.60
2023-02-25T22:05:17.619Z,75.73
2023-02-25T22:10:21.372Z,75.72
2023-02-25T22:15:24.863Z,75.95
2023-02-25T22:20:27.573Z,76.08
2023-02-25T22:25:33.138Z,75.99
2023-02-25T22:30:35.853Z,75.87
2023-02-25T22:35:38.910Z,75.90
2023-02-25T22:40:42.631Z,75.88
2023-02-25T22:45:45.590Z,75.72
2023-02-25T22:50:50.973Z,75.80
2023-02-25T22:55:53.569Z,75.81
2023-02-25T23:00:56.500Z,75.78
2023-02-25T23:05:59.237Z,76.00
2023-02-25T23:11:31.667Z,76.10
2023-02-25T23:16:37.440Z,76.26
2023-02-25T23:21:40.318Z,76.37
2023-02-25T23:26:44.083Z,76.32
2023-02-25T23:31:48.764Z,76.74
2023-02-25T23:36:55.717Z,76.67
2023-02-25T23:41:58.454Z,76.40
2023-02-25T23:47:01.177Z,76.79
2023-02-25T23:52:04.322Z,76.48
2023-02-25T23:57:07.097Z,76.58
